F/V Atalante — FVRQ — position and weather

sailwx.info

Track history (hours):
 
Tides and Currents Weather Stations Pressure Air Temp Water Temp Dewpoint Dewpoint Depression Visibility Wind Speed Wind Dir Waves Ship Positions

F/V Atalante

Last reported at 2014-Oct-19 11:33 UTC. Time now 2014-Oct-25 22:50 UTC.
Position N 47°19' W 003°28'.

Length 21 m; draft 3.9 m.

Type: . MMSI: 228854000.

Date/timePositionNaut miles runAvg speedWind from/ knotsBaromVisibWave heightAir tempDewpointWater temp
2014-Oct-19 11:33N 47°19' W 003°28'15 1.8
2014-Oct-19 03:05N 47°16' W 003°06'5 9.9
2014-Oct-19 02:32N 47°16' W 002°58'1010.0
2014-Oct-19 01:33N 47°18' W 002°44'  
2014-Oct-16 00:33N 47°18' W 002°45'2 0.1
2014-Oct-13 23:16N 47°18' W 002°49'810.7
2014-Oct-13 22:32N 47°19' W 002°38'7 2.5
2014-Oct-13 19:31N 47°23' W 002°47'1010.2
2014-Oct-13 18:31N 47°26' W 003°01'2110.4
2014-Oct-13 16:29N 47°35' W 003°30'4 2.1
2014-Oct-13 14:32N 47°36' W 003°36'3 3.2
2014-Oct-13 13:28N 47°33' W 003°33'2 0.6
2014-Oct-13 10:25N 47°35' W 003°32'3 3.0
2014-Oct-13 09:33N 47°33' W 003°32'20 8.2
2014-Oct-13 07:10N 47°23' W 003°07'8 9.2
2014-Oct-13 06:16N 47°19' W 002°56'6 8.8
2014-Oct-13 05:33N 47°18' W 002°47'32 2.8
2014-Oct-12 18:05N 47°30' W 003°31'2 1.8
2014-Oct-12 17:08N 47°31' W 003°33'3 0.2
2014-Oct-12 06:19N 47°30' W 003°29'18 8.9
2014-Oct-12 04:20N 47°22' W 003°06'7 9.2
2014-Oct-12 03:33N 47°19' W 002°57'9 8.6
2014-Oct-12 02:32N 47°19' W 002°43'  
Track history (hours):
 
Tides and Currents Weather Stations Pressure Air Temp Water Temp Dewpoint Dewpoint Depression Visibility Wind Speed Wind Dir Waves Ship Positions

F/V Atalante

Last reported at 2014-Oct-19 11:33 UTC. Time now 2014-Oct-25 22:50 UTC.
Position N 47°19' W 003°28'.

Length 21 m; draft 3.9 m.

Type: . MMSI: 228854000.

Date/timePositionNaut miles runAvg speedWind from/ knotsBaromVisibWave heightAir tempDewpointWater temp
2014-Oct-19 11:33N 47°19' W 003°28'15 1.8
2014-Oct-19 03:05N 47°16' W 003°06'5 9.9
2014-Oct-19 02:32N 47°16' W 002°58'1010.0
2014-Oct-19 01:33N 47°18' W 002°44'  
2014-Oct-16 00:33N 47°18' W 002°45'2 0.1
2014-Oct-13 23:16N 47°18' W 002°49'810.7
2014-Oct-13 22:32N 47°19' W 002°38'7 2.5
2014-Oct-13 19:31N 47°23' W 002°47'1010.2
2014-Oct-13 18:31N 47°26' W 003°01'2110.4
2014-Oct-13 16:29N 47°35' W 003°30'4 2.1
2014-Oct-13 14:32N 47°36' W 003°36'3 3.2
2014-Oct-13 13:28N 47°33' W 003°33'2 0.6
2014-Oct-13 10:25N 47°35' W 003°32'3 3.0
2014-Oct-13 09:33N 47°33' W 003°32'20 8.2
2014-Oct-13 07:10N 47°23' W 003°07'8 9.2
2014-Oct-13 06:16N 47°19' W 002°56'6 8.8
2014-Oct-13 05:33N 47°18' W 002°47'32 2.8
2014-Oct-12 18:05N 47°30' W 003°31'2 1.8
2014-Oct-12 17:08N 47°31' W 003°33'3 0.2
2014-Oct-12 06:19N 47°30' W 003°29'18 8.9
2014-Oct-12 04:20N 47°22' W 003°06'7 9.2
2014-Oct-12 03:33N 47°19' W 002°57'9 8.6
2014-Oct-12 02:32N 47°19' W 002°43'  

Dump ship's entire track history